createdAt,value
2019-05-18T00:02:08.266Z,90.27
2019-05-18T00:04:41.368Z,90.38
2019-05-18T00:07:11.446Z,90.38
2019-05-18T00:09:41.555Z,90.29
2019-05-18T00:12:11.603Z,90.33
2019-05-18T00:14:41.731Z,90.28
2019-05-18T00:17:24.510Z,90.37
2019-05-18T00:19:43.623Z,90.24
2019-05-18T00:22:13.704Z,90.13
2019-05-18T00:24:43.780Z,90.38
2019-05-18T00:27:15.863Z,90.59
2019-05-18T00:29:45.657Z,90.59
2019-05-18T00:32:15.898Z,90.80
2019-05-18T00:34:45.974Z,90.82
2019-05-18T00:37:16.077Z,90.65
2019-05-18T00:39:46.205Z,90.66
2019-05-18T00:42:16.281Z,90.49
2019-05-18T00:44:46.376Z,90.78
2019-05-18T00:47:16.487Z,91.05
2019-05-18T00:49:46.567Z,90.97
2019-05-18T00:52:16.656Z,90.75
2019-05-18T00:54:46.724Z,90.74
2019-05-18T00:57:16.812Z,90.81
2019-05-18T00:59:46.934Z,90.73
2019-05-18T01:02:17.053Z,90.87
2019-05-18T01:04:47.129Z,90.84
2019-05-18T01:07:17.207Z,91.11
2019-05-18T01:09:47.289Z,91.32
2019-05-18T01:12:17.369Z,91.42
2019-05-18T01:15:46.567Z,91.51
2019-05-18T01:18:16.750Z,91.50
2019-05-18T01:20:47.208Z,91.30
2019-05-18T01:23:17.271Z,91.25
2019-05-18T01:25:47.388Z,91.12
2019-05-18T01:28:17.458Z,90.97
2019-05-18T01:30:47.652Z,91.00
2019-05-18T01:33:17.799Z,91.10
2019-05-18T01:35:47.926Z,91.16
2019-05-18T01:38:18.005Z,91.21
2019-05-18T01:40:48.136Z,91.04
2019-05-18T01:43:18.199Z,90.97
2019-05-18T01:45:48.291Z,91.20
2019-05-18T01:48:18.420Z,91.23
2019-05-18T01:50:48.500Z,91.17
2019-05-18T01:53:18.593Z,90.93
2019-05-18T01:55:48.710Z,91.02
2019-05-18T01:58:18.847Z,91.27
2019-05-18T02:00:48.937Z,91.14
2019-05-18T02:03:19.116Z,91.20
2019-05-18T02:05:49.263Z,91.28
2019-05-18T02:08:19.376Z,91.28
2019-05-18T02:10:49.485Z,91.33
2019-05-18T02:13:19.648Z,91.29
2019-05-18T02:15:49.726Z,91.37
2019-05-18T02:18:28.642Z,91.55
2019-05-18T02:20:51.637Z,91.64
2019-05-18T02:23:21.746Z,91.72
2019-05-18T02:25:51.820Z,91.81
2019-05-18T02:28:21.928Z,91.96
2019-05-18T02:30:52.151Z,92.03
2019-05-18T02:33:22.247Z,92.35
2019-05-18T02:35:52.330Z,92.51
2019-05-18T02:38:22.471Z,92.58
2019-05-18T02:40:52.571Z,92.57
2019-05-18T02:43:22.655Z,92.66
2019-05-18T02:45:52.726Z,92.66
2019-05-18T02:48:22.813Z,92.66
2019-05-18T02:50:52.927Z,92.85
2019-05-18T02:53:22.991Z,92.93
2019-05-18T02:55:53.120Z,93.03
2019-05-18T02:58:23.171Z,92.96
2019-05-18T03:00:53.277Z,92.96
2019-05-18T03:03:23.362Z,92.96
2019-05-18T03:05:53.434Z,93.11
2019-05-18T03:08:23.512Z,93.11
2019-05-18T03:10:53.771Z,93.16
2019-05-18T03:13:23.830Z,93.37
2019-05-18T03:15:53.987Z,93.43
2019-05-18T03:18:24.061Z,93.53
2019-05-18T03:20:54.185Z,93.64
2019-05-18T03:23:24.284Z,93.60
2019-05-18T03:25:54.371Z,93.80
2019-05-18T03:28:24.443Z,93.82
2019-05-18T03:30:54.517Z,93.94
2019-05-18T03:33:29.141Z,93.95
2019-05-18T03:35:56.385Z,93.89
2019-05-18T03:38:26.442Z,93.86
2019-05-18T03:40:56.566Z,93.92
2019-05-18T03:43:26.660Z,93.96
2019-05-18T03:45:56.755Z,93.97
2019-05-18T03:48:26.823Z,93.94
2019-05-18T03:50:56.943Z,93.89
2019-05-18T03:53:27.002Z,93.82
2019-05-18T03:55:57.219Z,93.82
2019-05-18T03:58:27.238Z,93.78
2019-05-18T04:00:57.318Z,93.72
2019-05-18T04:03:27.379Z,93.69
2019-05-18T04:05:57.478Z,93.46
2019-05-18T04:08:27.629Z,93.27
2019-05-18T04:10:57.740Z,93.08
2019-05-18T04:13:27.833Z,92.81
2019-05-18T04:15:57.908Z,92.78
2019-05-18T04:18:27.983Z,92.70
2019-05-18T04:20:58.374Z,92.59
2019-05-18T04:23:28.533Z,92.38
2019-05-18T04:25:58.626Z,92.24
2019-05-18T04:28:28.727Z,92.13
2019-05-18T04:30:58.778Z,91.87
2019-05-18T04:33:28.904Z,91.76
2019-05-18T04:35:59.004Z,91.60
2019-05-18T04:38:29.104Z,91.27
2019-05-18T04:41:02.559Z,91.29
2019-05-18T04:43:32.678Z,91.05
2019-05-18T04:46:02.770Z,90.71
2019-05-18T04:48:32.886Z,90.62
2019-05-18T04:51:02.981Z,90.68
2019-05-18T04:53:33.071Z,90.70
2019-05-18T04:56:03.187Z,90.32
2019-05-18T04:58:33.339Z,90.20
2019-05-18T05:01:03.422Z,90.22
2019-05-18T05:03:33.667Z,89.90
2019-05-18T05:06:03.776Z,89.76
2019-05-18T05:08:33.887Z,89.39
2019-05-18T05:11:04.009Z,89.14
2019-05-18T05:13:34.112Z,88.76
2019-05-18T05:16:04.594Z,88.41
2019-05-18T05:18:34.773Z,87.95
2019-05-18T05:21:04.898Z,87.84
2019-05-18T05:23:34.967Z,87.47
2019-05-18T05:26:05.095Z,87.23
2019-05-18T05:28:35.188Z,87.23
2019-05-18T05:31:05.304Z,86.26
2019-05-18T05:33:38.453Z,85.24
2019-05-18T05:36:08.567Z,78.85
2019-05-18T05:38:38.693Z,80.68
2019-05-18T05:41:08.854Z,79.61
2019-05-18T05:43:38.915Z,78.57
2019-05-18T05:46:08.981Z,74.61
2019-05-18T05:48:39.069Z,77.32
2019-05-18T05:51:09.181Z,75.37
2019-05-18T05:53:39.320Z,77.41
2019-05-18T05:56:09.418Z,70.75
2019-05-18T05:58:39.515Z,75.81
2019-05-18T06:01:09.589Z,74.25
2019-05-18T06:03:39.695Z,76.20
2019-05-18T06:06:09.879Z,75.75
2019-05-18T06:08:40.001Z,76.94
2019-05-18T06:11:11.992Z,76.86
2019-05-18T06:13:42.079Z,74.34
2019-05-18T06:16:13.928Z,68.64
2019-05-18T06:18:44.056Z,66.25
2019-05-18T06:21:14.248Z,64.68
2019-05-18T06:23:44.340Z,67.33
2019-05-18T06:26:14.416Z,63.71
2019-05-18T06:28:44.706Z,63.13
2019-05-18T06:31:16.600Z,61.82
2019-05-18T06:33:46.748Z,60.25
2019-05-18T06:36:16.864Z,59.99
2019-05-18T06:38:46.950Z,59.96
2019-05-18T06:41:17.044Z,59.46
2019-05-18T06:43:47.167Z,60.45
2019-05-18T06:46:17.303Z,64.10
2019-05-18T06:48:47.422Z,63.74
2019-05-18T06:51:19.284Z,65.25
2019-05-18T06:53:49.452Z,63.48
2019-05-18T06:56:19.750Z,63.65
2019-05-18T06:58:51.721Z,64.86
2019-05-18T07:01:21.851Z,61.82
2019-05-18T07:03:51.953Z,62.08
2019-05-18T07:06:22.019Z,62.53
2019-05-18T07:08:52.131Z,63.70
2019-05-18T07:11:22.208Z,64.33
2019-05-18T07:13:52.330Z,60.42
2019-05-18T07:16:22.458Z,59.38
2019-05-18T07:18:52.541Z,58.53
2019-05-18T07:21:22.835Z,56.73
2019-05-18T07:23:52.935Z,56.31
2019-05-18T07:26:23.027Z,57.79
2019-05-18T07:28:53.137Z,57.55
2019-05-18T07:31:23.395Z,56.37
2019-05-18T07:33:53.547Z,57.58
2019-05-18T07:36:23.675Z,55.54
2019-05-18T07:38:53.776Z,56.20
2019-05-18T07:41:23.881Z,56.57
2019-05-18T07:43:54.047Z,55.77
2019-05-18T07:46:24.157Z,54.37
2019-05-18T07:48:54.274Z,55.10
2019-05-18T07:51:36.319Z,55.35
2019-05-18T07:53:56.213Z,54.59
2019-05-18T07:56:26.322Z,54.09
2019-05-18T07:58:56.420Z,54.44
2019-05-18T08:01:26.496Z,53.42
2019-05-18T08:03:56.591Z,53.85
2019-05-18T08:06:26.680Z,52.98
2019-05-18T08:08:56.820Z,53.10
2019-05-18T08:11:27.263Z,52.39
2019-05-18T08:13:57.538Z,53.85
2019-05-18T08:16:28.731Z,52.85
2019-05-18T08:18:58.819Z,52.15
2019-05-18T08:21:28.917Z,53.65
2019-05-18T08:23:59.098Z,54.12
2019-05-18T08:26:29.169Z,53.68
2019-05-18T08:28:59.301Z,51.81
2019-05-18T08:31:29.431Z,51.72
2019-05-18T08:33:59.570Z,52.16
2019-05-18T08:36:29.651Z,51.63
2019-05-18T08:39:01.490Z,49.80
2019-05-18T08:41:31.604Z,51.08
2019-05-18T08:44:01.748Z,48.82
2019-05-18T08:46:31.853Z,50.10
2019-05-18T08:49:01.945Z,48.36
2019-05-18T08:51:32.035Z,47.43
2019-05-18T08:54:02.184Z,46.64
2019-05-18T08:56:32.282Z,47.14
2019-05-18T08:59:02.453Z,47.10
2019-05-18T09:01:32.571Z,47.33
2019-05-18T09:04:02.668Z,46.47
2019-05-18T09:06:32.748Z,47.91
2019-05-18T09:09:04.724Z,48.10
2019-05-18T09:11:34.873Z,48.05
2019-05-18T09:14:05.001Z,47.01
2019-05-18T09:16:35.109Z,48.20
2019-05-18T09:19:05.207Z,46.22
2019-05-18T09:21:35.273Z,47.15
2019-05-18T09:24:05.510Z,50.95
2019-05-18T09:26:35.618Z,48.59
2019-05-18T09:29:05.895Z,44.75
2019-05-18T09:31:35.960Z,43.86
2019-05-18T09:34:06.063Z,45.08
2019-05-18T09:36:36.163Z,45.05
2019-05-18T09:39:07.652Z,47.70
2019-05-18T09:41:37.799Z,44.64
2019-05-18T09:44:07.910Z,48.28
2019-05-18T09:46:38.005Z,49.07
2019-05-18T09:49:08.391Z,49.34
2019-05-18T09:51:38.493Z,47.42
2019-05-18T09:54:08.627Z,45.75
2019-05-18T09:56:38.730Z,50.14
2019-05-18T09:59:08.934Z,51.12
2019-05-18T10:01:39.020Z,51.93
2019-05-18T10:04:09.087Z,50.47
2019-05-18T10:06:39.207Z,48.84
2019-05-18T10:09:09.867Z,49.51
2019-05-18T10:11:39.958Z,48.39
2019-05-18T10:14:10.060Z,47.07
2019-05-18T10:16:40.203Z,44.50
2019-05-18T10:19:10.269Z,47.88
2019-05-18T10:21:40.417Z,48.46
2019-05-18T10:24:10.550Z,48.88
2019-05-18T10:26:40.631Z,47.41
2019-05-18T10:29:10.741Z,47.90
2019-05-18T10:31:40.854Z,47.58
2019-05-18T10:34:10.948Z,46.87
2019-05-18T10:36:41.119Z,44.36
2019-05-18T10:39:11.213Z,40.18
2019-05-18T10:41:41.337Z,42.33
2019-05-18T10:44:11.428Z,45.43
2019-05-18T10:46:41.505Z,47.03
2019-05-18T10:49:11.629Z,50.18
2019-05-18T10:51:41.724Z,51.03
2019-05-18T10:54:14.716Z,49.21
2019-05-18T10:56:44.841Z,51.27
2019-05-18T10:59:14.929Z,50.43
2019-05-18T11:01:45.071Z,52.00
2019-05-18T11:04:15.172Z,50.90
2019-05-18T11:06:45.273Z,48.51
2019-05-18T11:09:15.373Z,49.39
2019-05-18T11:11:45.471Z,50.86
2019-05-18T11:14:18.751Z,49.24
2019-05-18T11:16:47.447Z,44.98
2019-05-18T11:19:17.650Z,46.52
2019-05-18T11:21:47.754Z,46.07
2019-05-18T11:24:17.848Z,47.87
2019-05-18T11:26:47.926Z,46.59
2019-05-18T11:29:23.417Z,48.15
2019-05-18T11:31:51.861Z,46.53
2019-05-18T11:34:21.949Z,42.80
2019-05-18T11:36:52.073Z,43.77
2019-05-18T11:39:22.236Z,43.53
2019-05-18T11:41:52.360Z,45.16
2019-05-18T11:44:22.430Z,44.65
2019-05-18T11:46:52.537Z,46.44
2019-05-18T11:49:28.979Z,47.16
2019-05-18T11:51:57.470Z,48.89
2019-05-18T11:54:27.628Z,47.97
2019-05-18T11:56:57.781Z,45.08
2019-05-18T11:59:27.891Z,43.82
2019-05-18T12:01:57.970Z,45.34
2019-05-18T12:04:28.088Z,44.72
2019-05-18T12:06:58.197Z,44.28
2019-05-18T12:09:28.308Z,43.01
2019-05-18T12:11:58.394Z,42.16
2019-05-18T12:14:28.515Z,45.95
2019-05-18T12:16:58.594Z,45.74
2019-05-18T12:19:28.727Z,47.28
2019-05-18T12:21:58.841Z,46.33
2019-05-18T12:24:28.954Z,45.85
2019-05-18T12:26:59.047Z,44.71
2019-05-18T12:29:29.171Z,46.88
2019-05-18T12:31:59.270Z,45.86
2019-05-18T12:34:29.463Z,48.21
2019-05-18T12:36:59.577Z,49.10
2019-05-18T12:39:29.693Z,49.21
2019-05-18T12:41:59.906Z,51.46
2019-05-18T12:44:30.033Z,49.67
2019-05-18T12:47:00.150Z,46.38
2019-05-18T12:49:30.271Z,44.23
2019-05-18T12:52:00.346Z,42.41
2019-05-18T12:54:45.373Z,41.45
2019-05-18T12:57:02.312Z,42.84
2019-05-18T12:59:32.424Z,44.13
2019-05-18T13:02:02.533Z,45.19
2019-05-18T13:04:32.627Z,46.58
2019-05-18T13:07:02.744Z,46.07
2019-05-18T13:09:32.851Z,46.22
2019-05-18T13:12:02.991Z,46.01
2019-05-18T13:14:33.077Z,45.66
2019-05-18T13:17:03.156Z,47.00
2019-05-18T13:19:33.635Z,47.91
2019-05-18T13:22:03.711Z,50.34
2019-05-18T13:24:44.922Z,48.03
2019-05-18T13:27:05.724Z,47.20
2019-05-18T13:29:35.851Z,44.62
2019-05-18T13:32:05.991Z,43.60
2019-05-18T13:34:36.085Z,42.24
2019-05-18T13:37:06.150Z,40.43
2019-05-18T13:39:37.108Z,40.02
2019-05-18T13:42:07.217Z,42.41
2019-05-18T13:44:38.197Z,45.69
2019-05-18T13:47:08.483Z,44.61
2019-05-18T13:49:38.592Z,45.56
2019-05-18T13:52:08.669Z,44.26
2019-05-18T13:54:40.208Z,40.83
2019-05-18T13:57:10.327Z,40.18
2019-05-18T13:59:40.432Z,43.23
2019-05-18T14:02:10.534Z,44.21
2019-05-18T14:04:42.056Z,45.85
2019-05-18T14:07:12.174Z,45.42
2019-05-18T14:09:42.280Z,44.24
2019-05-18T14:12:12.458Z,42.13
2019-05-18T14:14:42.573Z,41.11
2019-05-18T14:17:12.664Z,40.52
2019-05-18T14:19:42.772Z,39.96
2019-05-18T14:22:12.889Z,40.23
2019-05-18T14:24:42.976Z,40.78
2019-05-18T14:27:13.099Z,40.05
2019-05-18T14:29:43.235Z,40.98
2019-05-18T14:32:13.351Z,40.24
2019-05-18T14:34:43.422Z,41.26
2019-05-18T14:37:13.541Z,43.17
2019-05-18T14:39:43.633Z,41.37
2019-05-18T14:42:13.780Z,39.25
2019-05-18T14:44:43.845Z,40.40
2019-05-18T14:47:13.988Z,40.34
2019-05-18T14:49:46.559Z,39.15
2019-05-18T14:52:16.649Z,38.57
2019-05-18T14:54:46.743Z,39.53
2019-05-18T14:57:16.861Z,39.47
2019-05-18T14:59:46.956Z,42.12
2019-05-18T15:02:17.095Z,39.93
2019-05-18T15:04:47.189Z,39.75
2019-05-18T15:07:17.311Z,38.29
2019-05-18T15:09:47.387Z,38.00
2019-05-18T15:12:17.524Z,38.14
2019-05-18T15:14:47.663Z,39.13
2019-05-18T15:17:21.102Z,36.00
2019-05-18T15:19:51.195Z,37.66
2019-05-18T15:22:21.325Z,37.16
2019-05-18T15:24:51.492Z,37.24
2019-05-18T15:27:21.550Z,37.43
2019-05-18T15:29:51.679Z,36.72
2019-05-18T15:32:21.787Z,38.40
2019-05-18T15:34:51.937Z,38.62
2019-05-18T15:37:22.046Z,38.72
2019-05-18T15:39:52.551Z,39.56
2019-05-18T15:42:22.669Z,40.73
2019-05-18T15:44:52.879Z,41.71
2019-05-18T15:47:22.961Z,42.37
2019-05-18T15:49:53.079Z,44.18
2019-05-18T15:52:23.568Z,44.68
2019-05-18T15:54:53.664Z,44.70
2019-05-18T15:57:26.175Z,44.92
2019-05-18T15:59:55.624Z,43.79
2019-05-18T16:02:25.722Z,44.76
2019-05-18T16:04:55.814Z,44.19
2019-05-18T16:07:25.943Z,44.83
2019-05-18T16:09:56.034Z,45.89
2019-05-18T16:12:26.128Z,44.83
2019-05-18T16:14:56.238Z,45.68
2019-05-18T16:17:38.306Z,46.93
2019-05-18T16:19:58.450Z,46.02
2019-05-18T16:22:28.540Z,46.80
2019-05-18T16:24:58.719Z,48.14
2019-05-18T16:27:28.925Z,48.53
2019-05-18T16:29:59.094Z,47.94
2019-05-18T16:32:32.229Z,47.17
2019-05-18T16:35:04.014Z,47.04
2019-05-18T16:37:34.080Z,47.91
2019-05-18T16:40:04.304Z,49.00
2019-05-18T16:42:34.419Z,49.87
2019-05-18T16:45:04.895Z,51.14
2019-05-18T16:47:35.013Z,51.14
2019-05-18T16:50:06.575Z,51.50
2019-05-18T16:52:36.728Z,51.99
2019-05-18T16:55:07.522Z,52.43
2019-05-18T16:57:39.951Z,52.67
2019-05-18T17:00:15.419Z,53.24
2019-05-18T17:02:44.506Z,52.82
2019-05-18T17:05:15.553Z,52.99
2019-05-18T17:07:45.651Z,53.39
2019-05-18T17:10:15.982Z,54.11
2019-05-18T17:12:46.073Z,55.25
2019-05-18T17:15:16.441Z,55.16
2019-05-18T17:17:46.495Z,55.87
2019-05-18T17:20:16.682Z,56.67
2019-05-18T17:22:46.795Z,57.13
2019-05-18T17:25:19.580Z,58.01
2019-05-18T17:27:49.717Z,57.90
2019-05-18T17:30:21.088Z,58.24
2019-05-18T17:32:51.217Z,59.02
2019-05-18T17:35:21.450Z,59.22
2019-05-18T17:37:51.578Z,59.44
2019-05-18T17:40:21.775Z,59.53
2019-05-18T17:42:52.004Z,59.85
2019-05-18T17:45:22.476Z,60.13
2019-05-18T17:47:54.083Z,60.34
2019-05-18T17:50:24.182Z,60.57
2019-05-18T17:52:54.406Z,61.08
2019-05-18T17:55:24.517Z,61.32
2019-05-18T17:57:54.647Z,61.45
2019-05-18T18:00:24.758Z,62.05
2019-05-18T18:02:54.857Z,62.02
2019-05-18T18:05:24.961Z,62.23
2019-05-18T18:07:55.727Z,62.72
2019-05-18T18:10:26.052Z,62.96
2019-05-18T18:12:56.153Z,62.80
2019-05-18T18:15:26.650Z,63.73
2019-05-18T18:17:56.794Z,64.29
2019-05-18T18:20:26.878Z,64.15
2019-05-18T18:22:56.984Z,64.61
2019-05-18T18:25:27.061Z,64.56
2019-05-18T18:28:00.764Z,64.41
2019-05-18T18:30:30.879Z,64.67
2019-05-18T18:33:00.970Z,64.57
2019-05-18T18:35:31.196Z,64.31
2019-05-18T18:38:01.307Z,64.57
2019-05-18T18:40:31.405Z,65.21
2019-05-18T18:43:01.516Z,65.09
2019-05-18T18:45:33.437Z,65.46
2019-05-18T18:48:03.601Z,65.42
2019-05-18T18:50:33.695Z,65.72
2019-05-18T18:53:03.843Z,65.72
2019-05-18T18:55:33.925Z,66.31
2019-05-18T18:58:04.122Z,66.42
2019-05-18T19:00:34.182Z,66.26
2019-05-18T19:03:04.303Z,66.76
2019-05-18T19:05:34.393Z,67.11
2019-05-18T19:08:04.515Z,66.78
2019-05-18T19:10:34.588Z,67.05
2019-05-18T19:13:04.671Z,67.44
2019-05-18T19:15:34.760Z,66.99
2019-05-18T19:18:04.876Z,68.02
2019-05-18T19:20:34.979Z,67.94
2019-05-18T19:23:05.123Z,68.58
2019-05-18T19:25:35.164Z,69.10
2019-05-18T19:28:05.259Z,69.19
2019-05-18T19:30:35.367Z,69.52
2019-05-18T19:33:05.483Z,69.83
2019-05-18T19:35:35.571Z,70.12
2019-05-18T19:38:05.690Z,70.37
2019-05-18T19:40:35.811Z,70.75
2019-05-18T19:43:05.895Z,71.55
2019-05-18T19:45:36.023Z,71.51
2019-05-18T19:48:06.115Z,72.04
2019-05-18T19:50:36.254Z,72.02
2019-05-18T19:53:06.403Z,72.08
2019-05-18T19:55:36.502Z,72.77
2019-05-18T19:58:09.074Z,72.98
2019-05-18T20:00:38.487Z,72.91
2019-05-18T20:03:08.605Z,73.20
2019-05-18T20:05:38.662Z,73.30
2019-05-18T20:08:08.762Z,73.93
2019-05-18T20:10:38.854Z,74.25
2019-05-18T20:13:08.986Z,74.09
2019-05-18T20:15:39.179Z,74.26
2019-05-18T20:18:09.390Z,74.61
2019-05-18T20:20:39.548Z,74.86
2019-05-18T20:23:09.697Z,75.52
2019-05-18T20:25:39.808Z,75.33
2019-05-18T20:28:22.862Z,75.74
2019-05-18T20:30:43.835Z,75.90
2019-05-18T20:33:13.994Z,76.10
2019-05-18T20:35:46.135Z,76.54
2019-05-18T20:38:15.952Z,76.32
2019-05-18T20:40:46.054Z,76.79
2019-05-18T20:43:16.158Z,77.17
2019-05-18T20:45:46.282Z,77.42
2019-05-18T20:48:17.065Z,77.75
2019-05-18T20:50:47.289Z,77.96
2019-05-18T20:53:17.390Z,78.28
2019-05-18T20:55:47.572Z,78.18
2019-05-18T20:58:19.397Z,78.54
2019-05-18T21:00:49.529Z,78.55
2019-05-18T21:03:19.622Z,78.88
2019-05-18T21:05:49.889Z,78.93
2019-05-18T21:08:20.014Z,79.19
2019-05-18T21:10:50.223Z,79.38
2019-05-18T21:13:20.350Z,79.71
2019-05-18T21:15:50.470Z,79.92
2019-05-18T21:18:20.544Z,80.24
2019-05-18T21:20:50.661Z,80.32
2019-05-18T21:23:20.777Z,80.29
2019-05-18T21:25:50.876Z,80.68
2019-05-18T21:28:20.954Z,80.83
2019-05-18T21:30:51.069Z,81.01
2019-05-18T21:33:21.173Z,81.21
2019-05-18T21:35:51.294Z,81.42
2019-05-18T21:38:21.420Z,81.62
2019-05-18T21:40:51.764Z,81.71
2019-05-18T21:43:21.965Z,81.82
2019-05-18T21:45:52.074Z,81.80
2019-05-18T21:48:22.233Z,81.85
2019-05-18T21:50:52.413Z,82.33
2019-05-18T21:53:22.517Z,82.44
2019-05-18T21:55:52.614Z,82.45
2019-05-18T21:58:22.949Z,82.51
2019-05-18T22:00:53.603Z,82.75
2019-05-18T22:03:23.700Z,82.78
2019-05-18T22:05:53.973Z,82.78
2019-05-18T22:08:24.123Z,83.08
2019-05-18T22:10:54.392Z,83.44
2019-05-18T22:13:24.502Z,83.79
2019-05-18T22:15:54.604Z,83.50
2019-05-18T22:18:25.111Z,83.69
2019-05-18T22:20:55.377Z,83.83
2019-05-18T22:23:25.474Z,84.06
2019-05-18T22:25:57.153Z,84.25
2019-05-18T22:28:27.467Z,84.72
2019-05-18T22:30:57.564Z,84.82
2019-05-18T22:33:27.878Z,85.07
2019-05-18T22:35:58.020Z,85.06
2019-05-18T22:38:28.131Z,85.23
2019-05-18T22:40:58.226Z,85.60
2019-05-18T22:43:28.316Z,85.64
2019-05-18T22:45:58.408Z,85.46
2019-05-18T22:48:40.934Z,85.79
2019-05-18T22:51:00.325Z,86.11
2019-05-18T22:53:30.422Z,85.93
2019-05-18T22:56:02.272Z,86.03
2019-05-18T22:58:32.372Z,85.97
2019-05-18T23:01:02.456Z,86.01
2019-05-18T23:03:32.551Z,86.43
2019-05-18T23:06:02.680Z,86.57
2019-05-18T23:08:32.764Z,86.67
2019-05-18T23:11:02.834Z,87.03
2019-05-18T23:13:33.007Z,86.96
2019-05-18T23:16:03.102Z,87.25
2019-05-18T23:18:33.213Z,87.54
2019-05-18T23:21:03.595Z,87.86
2019-05-18T23:23:33.730Z,87.95
2019-05-18T23:26:03.809Z,88.05
2019-05-18T23:28:33.993Z,88.18
2019-05-18T23:31:04.057Z,88.16
2019-05-18T23:33:34.159Z,88.26
2019-05-18T23:36:04.250Z,88.50
2019-05-18T23:38:34.356Z,88.52
2019-05-18T23:41:04.419Z,88.62
2019-05-18T23:43:34.498Z,88.89
2019-05-18T23:46:04.582Z,88.94
2019-05-18T23:48:34.695Z,88.58
2019-05-18T23:51:04.760Z,88.53
2019-05-18T23:53:34.844Z,88.97
2019-05-18T23:56:04.974Z,89.15
2019-05-18T23:58:35.083Z,88.98
